x

Grays Reef - 40 Nm Southeast Of Savannah, Ga (41008) Wave Buoy

2:50am - Mon 26th Jan 2015 All times are EST. -5 hours from GMT.

  • Sig Wave height 3.9ft
  • Swell Direction
  • Peak Period 5s
  • Average Period 4s
  • Wind
    18mph, 20mph gusts
  • Sea Temp 55°f
  • Air Temp 56°f
  • Sea Pressure 1008.4mb
  • Grays Reef - 40 Nm Southeast Of Savannah, Ga
  • Grays Reef - 40 Nm Southeast Of Savannah, Ga

More Historic Weather Station data

Upgrade to MSW Pro to gain access to the past 30 days of data for over 8000 Wavebouys and Weather Stations around the globe.

Join Pro

Comparision Forecast

View Surf forecast
   
Mon 01/26 2:50am 4ft 5s 4s 18 20 mph 1008.4mb 55f 56f
1:50am 4ft 4s 4s 20 25 mph 1009.4mb 55f 56f
12:50am 3.5ft 5s 4s 22 27 mph 1009.9mb 55f 56f
Sun 01/25 11:50pm 3.5ft 5s 4s 20 25 mph 1010.9mb 55f 56f
10:50pm 3.5ft 4s 4s 20 25 mph 1011.4mb 55f 56f
9:50pm 3ft 4s 4s 20 22 mph 1011.9mb 55f 56f
8:50pm 2.5ft 4s 4s 20 22 mph 1011.9mb 55f 56f
7:50pm 2.5ft 4s 4s 18 22 mph 1012.5mb 55f 56f
6:50pm 2ft 3s 3s 18 22 mph 1012.5mb 55f 55f
5:50pm 1.6ft 3s 3s 18 22 mph 1012.1mb 55f 54f
4:50pm 1.3ft 3s 3s 13 16 mph 1012.9mb 55f 53f
3:50pm 1.3ft 2s 3s 13 16 mph 1013.4mb 55f 53f
2:50pm 1ft 10s 4s 13 16 mph 1013.6mb 56f 51f
1:50pm 1ft 11s 4s 11 13 mph 1014.2mb 56f 50f
12:50pm 1.3ft 11s 3s 4
mph
1015.8mb 56f 50f
11:50am 1.3ft 3s 3s 4 7 mph 1016.8mb 55f 49f
10:50am 1.6ft 3s 4s 9
mph
1017.3mb 55f 48f
9:50am 1.6ft 4s 4s 11 13 mph 1017.1mb 55f 47f
8:50am 2.5ft 4s 4s 11 13 mph 1017.2mb 55f 47f
7:50am 2.5ft 4s 4s 16 18 mph 1017.7mb 55f 47f
6:50am 2.5ft 4s 4s 18 20 mph 1017mb 55f 47f
5:50am 3ft 4s 4s 20 22 mph 1016.1mb 55f 48f
4:50am 2.5ft 4s 3s 20 22 mph 1015.9mb 55f 48f
3:50am 2.5ft 3s 3s 20 25 mph 1015.6mb 55f 49f
2:50am 3ft 4s 3s 20 25 mph 1015.2mb 55f 49f
1:50am 3.5ft 4s 4s 20 22 mph 1014.8mb 55f 50f
12:50am 3.5ft 4s 4s 22 27 mph 1014.2mb 55f 51f
Sat 01/24 11:50pm 3ft 4s 4s 22 29 mph 1014mb 55f 52f
10:50pm 3.5ft 4s 4s 25 29 mph 1014mb 55f 52f
9:50pm 3ft 4s 4s 22 27 mph 1013.8mb 55f 53f
8:50pm 3.5ft 4s 4s 22 25 mph 1013.8mb 55f 53f
7:50pm 3.5ft 5s 4s 25 29 mph 1013.1mb 55f 53f
6:50pm 4ft 4s 4s 22 29 mph 1012.1mb 55f 54f
5:50pm 4ft 4s 4s 25 29 mph 1010.9mb 55f 54f
4:50pm 4.5ft 5s 4s 25 29 mph 1010.4mb 55f 55f
3:50pm 5ft 5s 4s 22 29 mph 1010.1mb 55f 54f
2:50pm 6ft 5s 5s 29 34 mph 1009.3mb 55f 53f
1:50pm 7ft 5s 5s 29 36 mph 1009.1mb 55f 52f
12:50pm 6ft 5s 5s 29 36 mph 1008.9mb 55f 53f
11:50am 6ft 5s 5s 29 38 mph 1008.7mb 55f 54f
10:50am 6.5ft 5s 5s 25 31 mph 1008.7mb 55f 53f
9:50am 6ft 8s 5s 22 29 mph 1008.2mb 55f 54f
8:50am 6ft 8s 5s 22 29 mph 1007mb 55f 56f
7:50am 6ft 8s 5s 18 20 mph 1005.8mb 55f 59f
6:50am 6.5ft 8s 5s 18 20 mph 1004.9mb 55f 59f
5:50am 6.5ft 7s 5s 25 29 mph 1003.1mb 55f 60f
4:50am 6.5ft 8s 5s 25 29 mph 1003mb 55f 60f
3:50am 6.5ft 8s 6s 25 31 mph 1003.7mb 55f 60f
2:50am 7ft 8s 6s 27 31 mph 1004.7mb 55f 61f
1:50am 7ft 8s 6s 22 29 mph 1005.6mb 55f 61f
12:50am 7ft 8s 5s 27 34 mph 1005.8mb 55f 62f
Fri 01/23 11:50pm 7.5ft 8s 5s 25 31 mph 1007.5mb 56f 61f
10:50pm 8ft 7s 5s 25 31 mph 1008.3mb 56f 62f
9:50pm 7ft 8s 5s 27 34 mph 1008.2mb 56f 63f
8:50pm 7ft 7s 5s 25 29 mph 1009mb 55f 62f
7:50pm 6.5ft 7s 5s 18 22 mph 1010.4mb 55f 61f
6:50pm 6ft 6s 5s 29 36 mph 1009.9mb 55f 62f
5:50pm 6ft 6s 5s 22 27 mph 1010.8mb 55f 61f
4:50pm 5ft 6s 5s 22 27 mph 1011.6mb 55f 61f
3:50pm 4ft 5s 5s 25 29 mph 1013mb 55f 61f
2:50pm 3.5ft 5s 5s 18 20 mph 1013.7mb 55f 60f
1:50pm 2.5ft 6s 5s 18 20 mph 1014.1mb 55f 60f
12:50pm 2.5ft 7s 5s 13 16 mph 1016.1mb 55f 60f
11:50am 3ft 6s 5s 11
mph
1017.7mb 56f 60f
10:50am 3.5ft 7s 5s 9
mph
1018.4mb 56f 59f
9:50am 3ft 5s 5s 9 11 mph 1019mb 56f 59f
8:50am  -   -   -  9 11 mph 1019.1mb 55f 59f
7:50am 3.5ft 6s 4s 11 13 mph 1019.2mb 55f 59f
6:50am 3.5ft 6s 4s 16 18 mph 1019.1mb 55f 58f
5:50am 3.5ft 4s 4s 18 22 mph 1019.2mb 55f 57f
4:50am 3ft 6s 4s 16 18 mph 1020.2mb 55f 57f
3:50am 2.5ft 5s 5s 13 16 mph 1021mb 55f 57f
2:50am 2.5ft 6s 5s 11 13 mph 1021mb 55f 57f
1:50am 2ft 6s 5s 11 13 mph 1021.6mb 55f 57f
12:50am 2ft 11s 5s 11
mph
1022.2mb 55f 57f
Thu 01/22 11:50pm 2ft 10s 5s 9
mph
1022.7mb 55f 57f
10:50pm 2ft 11s 5s 9 11 mph 1023.2mb 55f 57f
9:50pm 2ft 11s 5s 9
mph
1022.9mb 55f 57f
8:50pm 1.6ft 11s 6s 9
mph
1023.2mb 55f 57f
7:50pm 1.3ft 10s 6s 11 13 mph 1023mb 55f 56f
6:50pm 1.6ft 10s 6s 11 13 mph 1023mb 55f 56f
5:50pm 1.6ft 10s 6s 9 11 mph 1022.9mb 55f 56f
4:50pm 1.6ft 10s 5s 7 9 mph 1023.1mb 55f 56f
3:50pm 1.6ft 10s 5s 4 7 mph 1023.3mb 55f 56f
2:50pm 1.3ft 11s 5s 9 11 mph 1023.2mb 55f 55f
1:50pm 1.3ft 11s 5s 11
mph
1023.3mb 55f 54f
12:50pm 1.3ft 12s 5s 9 11 mph 1023.7mb 55f 54f
11:50am 1.6ft 12s 6s 9 11 mph 1024.4mb 55f 54f
10:50am 1.3ft 11s 6s 9 11 mph 1025mb 54f 53f
9:50am 1.3ft 11s 6s 9
mph
1024.7mb 54f 54f